sensor_id;sensor_type;location;lat;lon;timestamp;pressure;altitude;pressure_sealevel;temperature;humidity
46087;BME280;31824;49.648;8.640;2022-08-19T00:02:10;99889.97;;;21.63;100.00
46087;BME280;31824;49.648;8.640;2022-08-19T00:05:13;99886.81;;;21.73;100.00
46087;BME280;31824;49.648;8.640;2022-08-19T00:08:17;99884.75;;;21.66;100.00
46087;BME280;31824;49.648;8.640;2022-08-19T00:11:19;99876.38;;;21.58;100.00
46087;BME280;31824;49.648;8.640;2022-08-19T00:14:27;99873.22;;;21.47;100.00
46087;BME280;31824;49.648;8.640;2022-08-19T00:17:30;99872.28;;;21.25;100.00
46087;BME280;31824;49.648;8.640;2022-08-19T00:20:31;99864.13;;;21.22;100.00
46087;BME280;31824;49.648;8.640;2022-08-19T00:23:33;99855.34;;;21.25;100.00
46087;BME280;31824;49.648;8.640;2022-08-19T00:26:36;99851.06;;;21.29;100.00
46087;BME280;31824;49.648;8.640;2022-08-19T00:29:38;99838.06;;;21.17;100.00
46087;BME280;31824;49.648;8.640;2022-08-19T00:32:39;99825.25;;;21.29;100.00
46087;BME280;31824;49.648;8.640;2022-08-19T00:35:41;99820.63;;;21.25;100.00
46087;BME280;31824;49.648;8.640;2022-08-19T00:38:43;99822.16;;;21.20;100.00
46087;BME280;31824;49.648;8.640;2022-08-19T00:41:46;99824.34;;;21.29;100.00
46087;BME280;31824;49.648;8.640;2022-08-19T00:44:49;99813.38;;;21.22;100.00
46087;BME280;31824;49.648;8.640;2022-08-19T00:47:51;99818.59;;;21.19;100.00
46087;BME280;31824;49.648;8.640;2022-08-19T00:50:54;99814.69;;;21.32;100.00
46087;BME280;31824;49.648;8.640;2022-08-19T00:53:57;99818.69;;;21.42;100.00
46087;BME280;31824;49.648;8.640;2022-08-19T00:57:01;99832.28;;;21.27;100.00
46087;BME280;31824;49.648;8.640;2022-08-19T01:00:12;99835.88;;;21.28;100.00
46087;BME280;31824;49.648;8.640;2022-08-19T01:03:18;99833.13;;;21.26;100.00
46087;BME280;31824;49.648;8.640;2022-08-19T01:06:20;99838.41;;;21.24;100.00
46087;BME280;31824;49.648;8.640;2022-08-19T01:09:21;99846.38;;;21.23;100.00
46087;BME280;31824;49.648;8.640;2022-08-19T01:12:23;99850.91;;;21.25;100.00
46087;BME280;31824;49.648;8.640;2022-08-19T01:15:31;99852.06;;;21.11;100.00
46087;BME280;31824;49.648;8.640;2022-08-19T01:18:37;99831.47;;;21.08;100.00
46087;BME280;31824;49.648;8.640;2022-08-19T01:21:52;99832.19;;;21.04;100.00
46087;BME280;31824;49.648;8.640;2022-08-19T01:24:56;99831.34;;;21.05;100.00
46087;BME280;31824;49.648;8.640;2022-08-19T01:27:59;99826.59;;;21.19;100.00
46087;BME280;31824;49.648;8.640;2022-08-19T01:31:17;99837.34;;;21.21;100.00
46087;BME280;31824;49.648;8.640;2022-08-19T01:34:28;99838.50;;;21.06;100.00
46087;BME280;31824;49.648;8.640;2022-08-19T01:37:30;99844.19;;;21.14;100.00
46087;BME280;31824;49.648;8.640;2022-08-19T01:40:42;99834.28;;;21.12;100.00
46087;BME280;31824;49.648;8.640;2022-08-19T01:43:44;99842.75;;;21.22;100.00
46087;BME280;31824;49.648;8.640;2022-08-19T01:47:07;99849.28;;;21.29;100.00
46087;BME280;31824;49.648;8.640;2022-08-19T01:50:10;99858.84;;;21.24;100.00
46087;BME280;31824;49.648;8.640;2022-08-19T01:53:12;99853.38;;;21.21;100.00
46087;BME280;31824;49.648;8.640;2022-08-19T01:56:13;99842.63;;;21.19;100.00
46087;BME280;31824;49.648;8.640;2022-08-19T01:59:18;99850.84;;;21.24;100.00
46087;BME280;31824;49.648;8.640;2022-08-19T02:02:21;99847.25;;;21.23;100.00
46087;BME280;31824;49.648;8.640;2022-08-19T02:05:23;99851.84;;;21.26;100.00
46087;BME280;31824;49.648;8.640;2022-08-19T02:08:26;99851.50;;;21.18;100.00
46087;BME280;31824;49.648;8.640;2022-08-19T02:11:31;99843.22;;;21.12;100.00
46087;BME280;31824;49.648;8.640;2022-08-19T02:14:35;99856.97;;;21.21;100.00
46087;BME280;31824;49.648;8.640;2022-08-19T02:17:38;99869.53;;;21.24;100.00
46087;BME280;31824;49.648;8.640;2022-08-19T02:20:41;99850.91;;;21.25;100.00
46087;BME280;31824;49.648;8.640;2022-08-19T02:23:44;99845.06;;;21.34;100.00
46087;BME280;31824;49.648;8.640;2022-08-19T02:26:46;99841.03;;;21.23;100.00
46087;BME280;31824;49.648;8.640;2022-08-19T02:29:49;99846.75;;;21.32;100.00
46087;BME280;31824;49.648;8.640;2022-08-19T02:32:51;99843.75;;;21.46;100.00
46087;BME280;31824;49.648;8.640;2022-08-19T02:35:52;99842.72;;;21.42;100.00
46087;BME280;31824;49.648;8.640;2022-08-19T02:38:54;99851.06;;;21.29;100.00
46087;BME280;31824;49.648;8.640;2022-08-19T02:41:56;99848.88;;;21.20;100.00
46087;BME280;31824;49.648;8.640;2022-08-19T02:45:00;99862.69;;;21.10;100.00
46087;BME280;31824;49.648;8.640;2022-08-19T02:48:02;99856.63;;;21.14;100.00
46087;BME280;31824;49.648;8.640;2022-08-19T02:51:27;99847.44;;;21.07;100.00
46087;BME280;31824;49.648;8.640;2022-08-19T02:54:29;99848.88;;;21.20;100.00
46087;BME280;31824;49.648;8.640;2022-08-19T02:57:30;99847.47;;;21.28;100.00
46087;BME280;31824;49.648;8.640;2022-08-19T03:00:33;99855.88;;;21.16;100.00
46087;BME280;31824;49.648;8.640;2022-08-19T03:03:39;99853.13;;;21.15;100.00
46087;BME280;31824;49.648;8.640;2022-08-19T03:06:44;99858.97;;;21.06;100.00
46087;BME280;31824;49.648;8.640;2022-08-19T03:09:46;99849.94;;;21.23;100.00
46087;BME280;31824;49.648;8.640;2022-08-19T03:13:05;99854.75;;;21.32;100.00
46087;BME280;31824;49.648;8.640;2022-08-19T03:16:07;99851.97;;;21.29;100.00
46087;BME280;31824;49.648;8.640;2022-08-19T03:19:08;99851.16;;;21.11;100.00
46087;BME280;31824;49.648;8.640;2022-08-19T03:22:10;99844.34;;;20.98;100.00
46087;BME280;31824;49.648;8.640;2022-08-19T03:25:12;99838.66;;;20.90;100.00
46087;BME280;31824;49.648;8.640;2022-08-19T03:28:14;99839.28;;;20.84;100.00
46087;BME280;31824;49.648;8.640;2022-08-19T03:31:18;99840.50;;;20.91;100.00
46087;BME280;31824;49.648;8.640;2022-08-19T03:34:40;99846.88;;;20.95;100.00
46087;BME280;31824;49.648;8.640;2022-08-19T03:37:41;99858.69;;;20.80;100.00
46087;BME280;31824;49.648;8.640;2022-08-19T03:40:43;99852.69;;;20.66;100.00
46087;BME280;31824;49.648;8.640;2022-08-19T03:43:45;99845.69;;;20.68;100.00
46087;BME280;31824;49.648;8.640;2022-08-19T03:46:57;99850.47;;;20.76;100.00
46087;BME280;31824;49.648;8.640;2022-08-19T03:49:59;99851.94;;;20.69;100.00
46087;BME280;31824;49.648;8.640;2022-08-19T03:53:01;99857.13;;;20.66;100.00
46087;BME280;31824;49.648;8.640;2022-08-19T03:56:03;99870.66;;;20.51;100.00
46087;BME280;31824;49.648;8.640;2022-08-19T03:59:08;99878.56;;;20.49;100.00
46087;BME280;31824;49.648;8.640;2022-08-19T04:02:11;99881.88;;;20.44;100.00
46087;BME280;31824;49.648;8.640;2022-08-19T04:05:13;99884.72;;;20.29;100.00
46087;BME280;31824;49.648;8.640;2022-08-19T04:08:16;99886.16;;;20.40;100.00
46087;BME280;31824;49.648;8.640;2022-08-19T04:11:24;99882.81;;;20.08;100.00
46087;BME280;31824;49.648;8.640;2022-08-19T04:14:44;99877.13;;;20.18;100.00
46087;BME280;31824;49.648;8.640;2022-08-19T04:17:46;99873.78;;;20.42;100.00
46087;BME280;31824;49.648;8.640;2022-08-19T04:20:48;99880.75;;;20.20;100.00
46087;BME280;31824;49.648;8.640;2022-08-19T04:23:51;99884.75;;;20.11;100.00
46087;BME280;31824;49.648;8.640;2022-08-19T04:26:56;99880.16;;;20.08;100.00
46087;BME280;31824;49.648;8.640;2022-08-19T04:29:57;99882.53;;;20.02;100.00
46087;BME280;31824;49.648;8.640;2022-08-19T04:32:59;99876.66;;;20.09;100.00
46087;BME280;31824;49.648;8.640;2022-08-19T04:36:00;99879.88;;;20.02;100.00
46087;BME280;31824;49.648;8.640;2022-08-19T04:39:07;99877.03;;;19.99;100.00
46087;BME280;31824;49.648;8.640;2022-08-19T04:42:09;99884.66;;;20.09;100.00
46087;BME280;31824;49.648;8.640;2022-08-19T04:45:31;99880.63;;;19.99;100.00
46087;BME280;31824;49.648;8.640;2022-08-19T04:48:44;99884.75;;;19.93;100.00
46087;BME280;31824;49.648;8.640;2022-08-19T04:51:51;99876.97;;;19.97;100.00
46087;BME280;31824;49.648;8.640;2022-08-19T04:54:55;99876.72;;;20.11;100.00
46087;BME280;31824;49.648;8.640;2022-08-19T04:57:56;99868.94;;;20.15;100.00
46087;BME280;31824;49.648;8.640;2022-08-19T05:00:58;99868.34;;;20.21;100.00
46087;BME280;31824;49.648;8.640;2022-08-19T05:04:04;99879.00;;;20.39;100.00
46087;BME280;31824;49.648;8.640;2022-08-19T05:07:07;99878.59;;;20.31;100.00
46087;BME280;31824;49.648;8.640;2022-08-19T05:10:09;99878.06;;;20.38;100.00
46087;BME280;31824;49.648;8.640;2022-08-19T05:13:11;99878.16;;;20.40;100.00
46087;BME280;31824;49.648;8.640;2022-08-19T05:16:13;99877.03;;;20.35;100.00
46087;BME280;31824;49.648;8.640;2022-08-19T05:19:16;99881.28;;;20.31;100.00
46087;BME280;31824;49.648;8.640;2022-08-19T05:22:36;99885.75;;;20.50;100.00
46087;BME280;31824;49.648;8.640;2022-08-19T05:25:39;99890.09;;;20.48;100.00
46087;BME280;31824;49.648;8.640;2022-08-19T05:28:41;99906.25;;;20.51;100.00
46087;BME280;31824;49.648;8.640;2022-08-19T05:31:44;99904.53;;;20.34;100.00
46087;BME280;31824;49.648;8.640;2022-08-19T05:34:46;99887.44;;;20.30;100.00
46087;BME280;31824;49.648;8.640;2022-08-19T05:37:47;99888.72;;;20.38;100.00
46087;BME280;31824;49.648;8.640;2022-08-19T05:40:55;99893.53;;;20.46;100.00
46087;BME280;31824;49.648;8.640;2022-08-19T05:43:57;99900.91;;;20.51;100.00
46087;BME280;31824;49.648;8.640;2022-08-19T05:47:01;99912.31;;;20.67;100.00
46087;BME280;31824;49.648;8.640;2022-08-19T05:50:03;99917.16;;;20.74;100.00
46087;BME280;31824;49.648;8.640;2022-08-19T05:53:05;99920.94;;;20.79;100.00
46087;BME280;31824;49.648;8.640;2022-08-19T05:56:09;99924.59;;;20.81;100.00
46087;BME280;31824;49.648;8.640;2022-08-19T05:59:11;99927.13;;;20.78;100.00
46087;BME280;31824;49.648;8.640;2022-08-19T06:02:14;99933.13;;;20.92;100.00
46087;BME280;31824;49.648;8.640;2022-08-19T06:05:15;99946.84;;;21.00;100.00
46087;BME280;31824;49.648;8.640;2022-08-19T06:08:17;99949.91;;;21.09;100.00
46087;BME280;31824;49.648;8.640;2022-08-19T06:11:34;99960.59;;;21.09;100.00
46087;BME280;31824;49.648;8.640;2022-08-19T06:14:36;99948.59;;;21.19;100.00
46087;BME280;31824;49.648;8.640;2022-08-19T06:17:42;99956.94;;;21.27;100.00
46087;BME280;31824;49.648;8.640;2022-08-19T06:20:45;99970.16;;;21.23;100.00
46087;BME280;31824;49.648;8.640;2022-08-19T06:23:57;99966.91;;;21.31;100.00
46087;BME280;31824;49.648;8.640;2022-08-19T06:26:59;99976.81;;;21.33;100.00
46087;BME280;31824;49.648;8.640;2022-08-19T06:30:03;99977.25;;;21.42;100.00
46087;BME280;31824;49.648;8.640;2022-08-19T06:33:05;99963.75;;;21.39;100.00
46087;BME280;31824;49.648;8.640;2022-08-19T06:36:07;99976.97;;;21.36;100.00
46087;BME280;31824;49.648;8.640;2022-08-19T06:39:13;99988.84;;;21.43;100.00
46087;BME280;31824;49.648;8.640;2022-08-19T06:42:15;99989.13;;;21.49;100.00
46087;BME280;31824;49.648;8.640;2022-08-19T06:45:22;99991.50;;;21.43;100.00
46087;BME280;31824;49.648;8.640;2022-08-19T06:48:34;99995.31;;;21.48;100.00
46087;BME280;31824;49.648;8.640;2022-08-19T06:51:46;99989.25;;;21.52;100.00
46087;BME280;31824;49.648;8.640;2022-08-19T06:54:49;100003.22;;;21.65;100.00
46087;BME280;31824;49.648;8.640;2022-08-19T06:57:57;100001.81;;;21.53;100.00
46087;BME280;31824;49.648;8.640;2022-08-19T07:01:03;100012.94;;;21.63;100.00
46087;BME280;31824;49.648;8.640;2022-08-19T07:04:09;100012.09;;;21.64;100.00
46087;BME280;31824;49.648;8.640;2022-08-19T07:07:14;100011.28;;;21.66;100.00
46087;BME280;31824;49.648;8.640;2022-08-19T07:10:21;100013.84;;;21.63;100.00
46087;BME280;31824;49.648;8.640;2022-08-19T07:13:26;99999.81;;;21.69;100.00
46087;BME280;31824;49.648;8.640;2022-08-19T07:16:28;99994.69;;;21.73;100.00
46087;BME280;31824;49.648;8.640;2022-08-19T07:19:31;99990.00;;;21.89;100.00
46087;BME280;31824;49.648;8.640;2022-08-19T07:22:34;99992.31;;;22.01;100.00
46087;BME280;31824;49.648;8.640;2022-08-19T07:25:37;99993.91;;;22.17;100.00
46087;BME280;31824;49.648;8.640;2022-08-19T07:28:38;99996.56;;;22.17;100.00
46087;BME280;31824;49.648;8.640;2022-08-19T07:31:52;100000.47;;;22.04;100.00
46087;BME280;31824;49.648;8.640;2022-08-19T07:34:55;100002.69;;;22.14;100.00
46087;BME280;31824;49.648;8.640;2022-08-19T07:37:58;100005.56;;;22.19;100.00
46087;BME280;31824;49.648;8.640;2022-08-19T07:41:00;100013.88;;;22.25;100.00
46087;BME280;31824;49.648;8.640;2022-08-19T07:44:03;100004.44;;;22.14;100.00
46087;BME280;31824;49.648;8.640;2022-08-19T07:47:06;100008.06;;;22.14;100.00
46087;BME280;31824;49.648;8.640;2022-08-19T07:50:28;100005.28;;;22.34;100.00
46087;BME280;31824;49.648;8.640;2022-08-19T07:53:31;100002.56;;;22.32;100.00
46087;BME280;31824;49.648;8.640;2022-08-19T07:56:39;100006.31;;;22.36;100.00
46087;BME280;31824;49.648;8.640;2022-08-19T07:59:41;100005.16;;;22.52;100.00
46087;BME280;31824;49.648;8.640;2022-08-19T08:02:42;99994.06;;;22.64;100.00
46087;BME280;31824;49.648;8.640;2022-08-19T08:05:44;100005.16;;;22.73;100.00
46087;BME280;31824;49.648;8.640;2022-08-19T08:09:05;100008.88;;;22.76;100.00
46087;BME280;31824;49.648;8.640;2022-08-19T08:12:23;100003.84;;;22.86;100.00
46087;BME280;31824;49.648;8.640;2022-08-19T08:15:37;100004.28;;;22.97;100.00
46087;BME280;31824;49.648;8.640;2022-08-19T08:18:43;100001.84;;;23.03;100.00
46087;BME280;31824;49.648;8.640;2022-08-19T08:21:56;99995.41;;;22.98;100.00
46087;BME280;31824;49.648;8.640;2022-08-19T08:25:03;99993.41;;;23.15;100.00
46087;BME280;31824;49.648;8.640;2022-08-19T08:28:07;99984.53;;;23.40;100.00
46087;BME280;31824;49.648;8.640;2022-08-19T08:31:18;99989.44;;;23.52;100.00
46087;BME280;31824;49.648;8.640;2022-08-19T08:34:22;99997.06;;;23.65;100.00
46087;BME280;31824;49.648;8.640;2022-08-19T08:37:24;99998.97;;;23.68;100.00
46087;BME280;31824;49.648;8.640;2022-08-19T08:41:00;100000.81;;;23.94;100.00
46087;BME280;31824;49.648;8.640;2022-08-19T08:44:14;99994.50;;;23.92;100.00
46087;BME280;31824;49.648;8.640;2022-08-19T08:47:23;99997.78;;;23.85;100.00
46087;BME280;31824;49.648;8.640;2022-08-19T08:50:33;99995.44;;;23.94;100.00
46087;BME280;31824;49.648;8.640;2022-08-19T08:53:40;100000.91;;;24.23;100.00
46087;BME280;31824;49.648;8.640;2022-08-19T08:56:44;100010.09;;;24.30;100.00
46087;BME280;31824;49.648;8.640;2022-08-19T08:59:53;100016.47;;;24.34;100.00
46087;BME280;31824;49.648;8.640;2022-08-19T09:02:59;100020.94;;;24.33;100.00
46087;BME280;31824;49.648;8.640;2022-08-19T09:06:28;100011.16;;;24.35;100.00
46087;BME280;31824;49.648;8.640;2022-08-19T09:09:35;100018.09;;;24.28;100.00
46087;BME280;31824;49.648;8.640;2022-08-19T09:15:52;100023.63;;;24.60;100.00
46087;BME280;31824;49.648;8.640;2022-08-19T09:19:01;100018.44;;;24.65;100.00
46087;BME280;31824;49.648;8.640;2022-08-19T09:22:06;100015.88;;;24.97;100.00
46087;BME280;31824;49.648;8.640;2022-08-19T09:25:12;100016.25;;;25.09;100.00
46087;BME280;31824;49.648;8.640;2022-08-19T09:28:14;100002.78;;;25.08;100.00
46087;BME280;31824;49.648;8.640;2022-08-19T09:31:29;99997.94;;;25.26;100.00
46087;BME280;31824;49.648;8.640;2022-08-19T09:34:32;99988.31;;;25.33;100.00
46087;BME280;31824;49.648;8.640;2022-08-19T09:37:38;99995.09;;;25.51;100.00
46087;BME280;31824;49.648;8.640;2022-08-19T09:40:40;99987.16;;;25.55;100.00
46087;BME280;31824;49.648;8.640;2022-08-19T09:43:44;99992.44;;;25.52;100.00
46087;BME280;31824;49.648;8.640;2022-08-19T09:46:48;99999.25;;;25.71;100.00
46087;BME280;31824;49.648;8.640;2022-08-19T09:49:50;99996.16;;;25.56;100.00
46087;BME280;31824;49.648;8.640;2022-08-19T09:52:52;99992.28;;;25.46;100.00
46087;BME280;31824;49.648;8.640;2022-08-19T09:55:58;99989.09;;;25.59;100.00
46087;BME280;31824;49.648;8.640;2022-08-19T09:59:00;99997.03;;;25.88;100.00
46087;BME280;31824;49.648;8.640;2022-08-19T10:02:02;100001.63;;;25.92;100.00
46087;BME280;31824;49.648;8.640;2022-08-19T10:05:11;99995.94;;;25.80;100.00
46087;BME280;31824;49.648;8.640;2022-08-19T10:08:35;99991.38;;;26.11;99.34
46087;BME280;31824;49.648;8.640;2022-08-19T10:11:40;99997.69;;;26.11;95.91
46087;BME280;31824;49.648;8.640;2022-08-19T10:14:54;99997.81;;;26.16;93.93
46087;BME280;31824;49.648;8.640;2022-08-19T10:17:55;99993.28;;;26.52;100.00
46087;BME280;31824;49.648;8.640;2022-08-19T10:21:10;99995.03;;;26.48;98.16
46087;BME280;31824;49.648;8.640;2022-08-19T10:24:12;99994.63;;;26.69;93.44
46087;BME280;31824;49.648;8.640;2022-08-19T10:27:15;99984.50;;;26.59;95.12
46087;BME280;31824;49.648;8.640;2022-08-19T10:30:17;99995.16;;;26.54;94.29
46087;BME280;31824;49.648;8.640;2022-08-19T10:33:20;99981.50;;;26.83;88.25
46087;BME280;31824;49.648;8.640;2022-08-19T10:36:41;99988.72;;;26.84;92.30
46087;BME280;31824;49.648;8.640;2022-08-19T10:40:01;99979.56;;;26.77;95.22
46087;BME280;31824;49.648;8.640;2022-08-19T10:43:03;99993.44;;;26.93;90.78
46087;BME280;31824;49.648;8.640;2022-08-19T10:46:07;99984.06;;;26.77;94.64
46087;BME280;31824;49.648;8.640;2022-08-19T10:49:14;99979.03;;;26.94;91.00
46087;BME280;31824;49.648;8.640;2022-08-19T10:52:17;99969.69;;;27.18;90.25
46087;BME280;31824;49.648;8.640;2022-08-19T10:55:39;99982.22;;;27.16;86.47
46087;BME280;31824;49.648;8.640;2022-08-19T10:58:59;99972.41;;;27.19;87.13
46087;BME280;31824;49.648;8.640;2022-08-19T11:02:03;99975.66;;;27.03;83.10
46087;BME280;31824;49.648;8.640;2022-08-19T11:05:06;99963.50;;;27.23;82.21
46087;BME280;31824;49.648;8.640;2022-08-19T11:08:13;99968.41;;;27.41;82.36
46087;BME280;31824;49.648;8.640;2022-08-19T11:11:24;99960.56;;;27.11;81.18
46087;BME280;31824;49.648;8.640;2022-08-19T11:14:25;99960.00;;;27.27;79.10
46087;BME280;31824;49.648;8.640;2022-08-19T11:17:32;99951.69;;;27.17;77.78
46087;BME280;31824;49.648;8.640;2022-08-19T11:20:34;99944.66;;;27.25;73.39
46087;BME280;31824;49.648;8.640;2022-08-19T11:23:35;99947.34;;;27.68;68.27
46087;BME280;31824;49.648;8.640;2022-08-19T11:26:38;99930.81;;;27.51;76.59
46087;BME280;31824;49.648;8.640;2022-08-19T11:29:40;99934.19;;;27.88;71.85
46087;BME280;31824;49.648;8.640;2022-08-19T11:32:42;99923.59;;;27.50;65.45
46087;BME280;31824;49.648;8.640;2022-08-19T11:35:49;99940.31;;;27.76;63.72
46087;BME280;31824;49.648;8.640;2022-08-19T11:38:51;99934.94;;;27.77;69.49
46087;BME280;31824;49.648;8.640;2022-08-19T11:41:53;99935.75;;;27.73;68.94
46087;BME280;31824;49.648;8.640;2022-08-19T11:44:54;99929.75;;;27.90;62.80
46087;BME280;31824;49.648;8.640;2022-08-19T11:47:56;99929.31;;;28.14;66.06
46087;BME280;31824;49.648;8.640;2022-08-19T11:50:58;99930.91;;;28.03;61.49
46087;BME280;31824;49.648;8.640;2022-08-19T11:54:01;99936.41;;;27.60;65.51
46087;BME280;31824;49.648;8.640;2022-08-19T11:57:03;99934.25;;;27.89;68.51
46087;BME280;31824;49.648;8.640;2022-08-19T12:00:05;99933.38;;;28.44;67.00
46087;BME280;31824;49.648;8.640;2022-08-19T12:03:08;99913.84;;;28.05;69.39
46087;BME280;31824;49.648;8.640;2022-08-19T12:06:27;99932.22;;;27.76;68.88
46087;BME280;31824;49.648;8.640;2022-08-19T12:09:29;99925.53;;;27.55;73.72
46087;BME280;31824;49.648;8.640;2022-08-19T12:12:33;99931.00;;;28.09;66.56
46087;BME280;31824;49.648;8.640;2022-08-19T12:15:38;99928.84;;;27.89;65.49
46087;BME280;31824;49.648;8.640;2022-08-19T12:18:43;99931.91;;;28.09;70.29
46087;BME280;31824;49.648;8.640;2022-08-19T12:21:47;99923.06;;;28.17;70.46
46087;BME280;31824;49.648;8.640;2022-08-19T12:24:49;99916.09;;;28.34;62.50
46087;BME280;31824;49.648;8.640;2022-08-19T12:27:53;99929.28;;;28.12;65.59
46087;BME280;31824;49.648;8.640;2022-08-19T12:30:58;99926.50;;;27.60;64.38
46087;BME280;31824;49.648;8.640;2022-08-19T12:33:59;99934.72;;;27.65;69.13
46087;BME280;31824;49.648;8.640;2022-08-19T12:37:04;99938.06;;;28.01;65.59
46087;BME280;31824;49.648;8.640;2022-08-19T12:40:06;99941.78;;;28.07;62.63
46087;BME280;31824;49.648;8.640;2022-08-19T12:43:08;99932.81;;;27.59;65.96
46087;BME280;31824;49.648;8.640;2022-08-19T12:46:10;99930.84;;;27.52;65.32
46087;BME280;31824;49.648;8.640;2022-08-19T12:49:13;99939.56;;;27.37;65.63
46087;BME280;31824;49.648;8.640;2022-08-19T12:52:36;99926.75;;;27.27;61.70
46087;BME280;31824;49.648;8.640;2022-08-19T12:55:38;99934.91;;;27.76;59.81
46087;BME280;31824;49.648;8.640;2022-08-19T12:58:41;99926.16;;;28.43;58.27
46087;BME280;31824;49.648;8.640;2022-08-19T13:01:49;99938.66;;;27.84;59.46
46087;BME280;31824;49.648;8.640;2022-08-19T13:04:50;99934.78;;;27.70;60.77
46087;BME280;31824;49.648;8.640;2022-08-19T13:07:54;99936.34;;;27.57;61.59
46087;BME280;31824;49.648;8.640;2022-08-19T13:10:57;99938.91;;;28.00;54.05
46087;BME280;31824;49.648;8.640;2022-08-19T13:14:01;99942.91;;;28.77;54.90
46087;BME280;31824;49.648;8.640;2022-08-19T13:17:03;99937.00;;;29.09;51.98
46087;BME280;31824;49.648;8.640;2022-08-19T13:20:06;99932.66;;;29.20;48.81
46087;BME280;31824;49.648;8.640;2022-08-19T13:23:09;99940.03;;;28.65;46.90
46087;BME280;31824;49.648;8.640;2022-08-19T13:26:12;99947.16;;;28.06;49.42
46087;BME280;31824;49.648;8.640;2022-08-19T13:29:14;99940.69;;;27.98;51.60
46087;BME280;31824;49.648;8.640;2022-08-19T13:32:34;99937.94;;;27.96;49.44
46087;BME280;31824;49.648;8.640;2022-08-19T13:35:58;99935.91;;;28.91;47.41
46087;BME280;31824;49.648;8.640;2022-08-19T13:39:02;99937.94;;;28.46;46.59
46087;BME280;31824;49.648;8.640;2022-08-19T13:42:04;99942.38;;;29.06;47.01
46087;BME280;31824;49.648;8.640;2022-08-19T13:45:07;99938.25;;;29.33;44.81
46087;BME280;31824;49.648;8.640;2022-08-19T13:48:10;99932.22;;;29.57;46.84
46087;BME280;31824;49.648;8.640;2022-08-19T13:51:11;99935.59;;;30.25;47.53
46087;BME280;31824;49.648;8.640;2022-08-19T13:54:13;99925.47;;;30.01;43.80
46087;BME280;31824;49.648;8.640;2022-08-19T13:57:14;99916.47;;;30.05;44.50
46087;BME280;31824;49.648;8.640;2022-08-19T14:00:17;99927.31;;;30.08;43.03
46087;BME280;31824;49.648;8.640;2022-08-19T14:03:19;99926.84;;;29.60;44.79
46087;BME280;31824;49.648;8.640;2022-08-19T14:06:20;99919.84;;;29.04;45.03
46087;BME280;31824;49.648;8.640;2022-08-19T14:09:23;99914.56;;;29.14;45.76
46087;BME280;31824;49.648;8.640;2022-08-19T14:12:25;99908.06;;;28.99;45.13
46087;BME280;31824;49.648;8.640;2022-08-19T14:15:29;99896.72;;;29.27;46.61
46087;BME280;31824;49.648;8.640;2022-08-19T14:18:31;99885.22;;;29.49;44.08
46087;BME280;31824;49.648;8.640;2022-08-19T14:21:32;99886.00;;;29.38;45.51
46087;BME280;31824;49.648;8.640;2022-08-19T14:24:40;99888.84;;;29.52;47.32
46087;BME280;31824;49.648;8.640;2022-08-19T14:27:48;99879.47;;;29.21;47.16
46087;BME280;31824;49.648;8.640;2022-08-19T14:30:50;99880.19;;;29.06;47.23
46087;BME280;31824;49.648;8.640;2022-08-19T14:33:56;99889.75;;;28.79;46.76
46087;BME280;31824;49.648;8.640;2022-08-19T14:36:58;99889.94;;;28.91;47.33
46087;BME280;31824;49.648;8.640;2022-08-19T14:40:03;99883.84;;;29.08;48.11
46087;BME280;31824;49.648;8.640;2022-08-19T14:43:05;99880.50;;;29.29;45.67
46087;BME280;31824;49.648;8.640;2022-08-19T14:46:06;99877.69;;;30.10;42.98
46087;BME280;31824;49.648;8.640;2022-08-19T14:49:10;99883.91;;;30.00;42.54
46087;BME280;31824;49.648;8.640;2022-08-19T14:52:12;99876.63;;;29.93;42.56
46087;BME280;31824;49.648;8.640;2022-08-19T14:55:15;99870.41;;;30.06;41.96
46087;BME280;31824;49.648;8.640;2022-08-19T14:58:17;99880.34;;;30.04;40.86
46087;BME280;31824;49.648;8.640;2022-08-19T15:01:30;99874.38;;;30.52;40.72
46087;BME280;31824;49.648;8.640;2022-08-19T15:04:32;99875.91;;;30.12;39.36
46087;BME280;31824;49.648;8.640;2022-08-19T15:07:34;99866.78;;;30.03;39.84
46087;BME280;31824;49.648;8.640;2022-08-19T15:10:40;99858.56;;;29.90;40.27
46087;BME280;31824;49.648;8.640;2022-08-19T15:13:43;99866.84;;;30.15;42.87
46087;BME280;31824;49.648;8.640;2022-08-19T15:16:45;99869.31;;;29.83;40.18
46087;BME280;31824;49.648;8.640;2022-08-19T15:19:46;99873.88;;;29.85;39.64
46087;BME280;31824;49.648;8.640;2022-08-19T15:22:48;99874.03;;;30.07;41.08
46087;BME280;31824;49.648;8.640;2022-08-19T15:25:50;99872.16;;;30.00;40.42
46087;BME280;31824;49.648;8.640;2022-08-19T15:28:56;99874.72;;;29.84;40.89
46087;BME280;31824;49.648;8.640;2022-08-19T15:31:58;99887.97;;;29.55;40.62
46087;BME280;31824;49.648;8.640;2022-08-19T15:35:02;99878.16;;;29.66;40.66
46087;BME280;31824;49.648;8.640;2022-08-19T15:38:04;99874.56;;;29.69;42.50
46087;BME280;31824;49.648;8.640;2022-08-19T15:41:36;99872.91;;;29.81;41.16
46087;BME280;31824;49.648;8.640;2022-08-19T15:44:37;99882.78;;;29.78;40.49
46087;BME280;31824;49.648;8.640;2022-08-19T15:47:39;99874.53;;;29.62;41.16
46087;BME280;31824;49.648;8.640;2022-08-19T15:50:42;99873.53;;;29.53;40.59
46087;BME280;31824;49.648;8.640;2022-08-19T15:53:44;99873.59;;;29.60;40.58
46087;BME280;31824;49.648;8.640;2022-08-19T15:56:47;99880.50;;;29.32;39.08
46087;BME280;31824;49.648;8.640;2022-08-19T16:00:08;99880.56;;;29.35;41.13
46087;BME280;31824;49.648;8.640;2022-08-19T16:03:28;99871.44;;;29.25;40.24
46087;BME280;31824;49.648;8.640;2022-08-19T16:06:55;99876.84;;;29.25;40.21
46087;BME280;31824;49.648;8.640;2022-08-19T16:09:57;99882.31;;;29.30;40.54
46087;BME280;31824;49.648;8.640;2022-08-19T16:13:18;99875.72;;;29.08;39.93
46087;BME280;31824;49.648;8.640;2022-08-19T16:16:21;99875.66;;;29.03;40.96